Time;durP1;ratioP1;P1;durP2;ratioP2;P2;SDS_P1;SDS_P2;PMS_P1;PMS_P2;Temp;Humidity;BMP_temperature;BMP_pressure;BME280_temperature;BME280_humidity;BME280_pressure;Samples;Min_cycle;Max_cycle;Signal;HPM_P1;HPM_P2
2022/01/13 04:02:22;;;;;;;5.70;5.20;;;1.60;78.00;;;;;;5241044;23;20495;-77
2022/01/13 04:04:50;;;;;;;7.23;6.37;;;1.70;77.90;;;;;;5013158;28;20851;-78
2022/01/13 04:07:18;;;;;;;6.43;5.83;;;1.60;77.90;;;;;;5013232;28;20448;-78
2022/01/13 04:10:27;;;;;;;6.43;5.30;;;1.60;78.20;;;;;;5016672;28;21009;-78
2022/01/13 04:12:55;;;;;;;6.47;5.87;;;1.70;78.70;;;;;;4997949;28;20492;-78
2022/01/13 04:15:25;;;;;;;6.13;5.53;;;1.80;78.60;;;;;;5023805;23;20485;-75
2022/01/13 04:17:53;;;;;;;6.37;5.77;;;2.00;78.20;;;;;;5016895;28;20443;-75
2022/01/13 04:20:20;;;;;;;6.00;5.40;;;2.10;77.50;;;;;;5016782;28;20440;-75
2022/01/13 04:22:48;;;;;;;6.10;5.60;;;2.10;77.60;;;;;;5016825;28;20506;-74
2022/01/13 04:25:20;;;;;;;6.50;5.90;;;2.10;77.50;;;;;;5016776;28;20436;-77
2022/01/13 04:27:48;;;;;;;5.27;4.73;;;2.20;77.20;;;;;;5016783;28;20527;-77
2022/01/13 04:30:35;;;;;;;8.00;7.23;;;2.30;77.00;;;;;;5016670;28;20448;-77
2022/01/13 04:33:07;;;;;;;6.70;6.00;;;2.30;76.50;;;;;;5016746;28;20523;-75
2022/01/13 04:35:33;;;;;;;6.33;5.73;;;2.30;76.00;;;;;;5016255;28;20486;-74
2022/01/13 04:38:00;;;;;;;6.13;5.53;;;2.20;76.60;;;;;;5016451;28;20482;-77
2022/01/13 04:40:27;;;;;;;6.67;6.07;;;2.30;76.70;;;;;;5016124;28;20817;-75
2022/01/13 04:42:56;;;;;;;5.73;5.17;;;2.40;76.70;;;;;;5016548;28;20459;-77
2022/01/13 04:45:25;;;;;;;6.47;5.87;;;2.50;76.60;;;;;;5016341;28;20455;-78
2022/01/13 04:47:53;;;;;;;5.43;4.87;;;2.50;76.50;;;;;;5016273;28;20444;-76
2022/01/13 04:50:23;;;;;;;6.40;5.80;;;2.60;76.50;;;;;;5016274;28;20862;-75
2022/01/13 04:52:50;;;;;;;5.57;5.03;;;2.50;76.60;;;;;;5016160;28;20544;-75
2022/01/13 04:55:23;;;;;;;6.47;5.87;;;2.60;76.30;;;;;;5016012;28;20480;-76
2022/01/13 04:57:50;;;;;;;5.63;5.13;;;2.60;76.20;;;;;;5015719;28;20870;-75
2022/01/13 05:00:17;;;;;;;5.43;4.87;;;2.70;76.10;;;;;;5016018;28;20448;-75
2022/01/13 05:02:43;;;;;;;5.90;5.30;;;2.70;76.10;;;;;;5016042;28;20452;-75
2022/01/13 05:05:11;;;;;;;6.30;5.60;;;2.80;76.10;;;;;;5015786;28;20531;-75
2022/01/13 05:07:40;;;;;;;6.27;5.67;;;2.80;76.20;;;;;;5015484;28;20514;-75
2022/01/13 05:10:07;;;;;;;7.40;6.60;;;2.60;75.60;;;;;;5015773;28;20500;-75
2022/01/13 05:12:39;;;;;;;6.40;5.80;;;2.20;77.40;;;;;;5015411;28;20891;-74
2022/01/13 05:15:08;;;;;;;7.87;7.17;;;1.90;78.00;;;;;;5015222;28;20997;-76
2022/01/13 05:18:01;;;;;;;6.77;6.17;;;1.70;79.30;;;;;;5015485;28;20440;-75
2022/01/13 05:20:37;;;;;;;6.93;6.23;;;1.90;78.60;;;;;;5014848;28;20764;-75
2022/01/13 05:23:06;;;;;;;6.57;5.97;;;2.10;78.10;;;;;;5015216;28;20429;-75
2022/01/13 05:25:33;;;;;;;6.23;5.63;;;2.00;77.90;;;;;;5014899;28;20558;-74
2022/01/13 05:27:59;;;;;;;6.87;6.20;;;1.60;78.10;;;;;;5015094;28;20444;-74
2022/01/13 05:30:26;;;;;;;6.20;5.60;;;1.60;79.10;;;;;;5014972;28;20494;-75
2022/01/13 05:32:53;;;;;;;6.20;5.60;;;1.40;79.30;;;;;;5015371;28;20502;-75
2022/01/13 05:35:20;;;;;;;6.53;6.00;;;1.70;79.10;;;;;;5014674;28;20516;-75
2022/01/13 05:37:47;;;;;;;6.30;5.70;;;1.50;78.90;;;;;;5014796;28;20479;-74
2022/01/13 05:40:15;;;;;;;6.57;5.97;;;1.60;78.50;;;;;;5014765;28;20453;-74
2022/01/13 05:42:42;;;;;;;7.20;6.50;;;1.40;79.50;;;;;;5014740;28;20495;-77
2022/01/13 05:45:15;;;;;;;7.63;6.93;;;1.20;80.00;;;;;;5014746;28;20440;-76
2022/01/13 05:47:42;;;;;;;6.20;5.60;;;1.50;79.70;;;;;;5014732;28;20440;-77
2022/01/13 05:50:10;;;;;;;6.40;5.60;;;1.60;79.10;;;;;;5014645;28;20832;-77
2022/01/13 05:52:37;;;;;;;6.63;6.00;;;1.80;78.80;;;;;;5014783;28;20532;-75
2022/01/13 05:55:04;;;;;;;7.73;7.03;;;1.90;78.30;;;;;;5014532;28;20611;-75
2022/01/13 05:57:32;;;;;;;7.60;7.00;;;2.00;78.10;;;;;;5014198;28;20858;-75
2022/01/13 06:00:00;;;;;;;6.50;5.90;;;2.00;77.70;;;;;;5014458;28;20444;-75
2022/01/13 06:02:26;;;;;;;7.57;6.87;;;1.80;78.10;;;;;;5014408;28;20452;-74
2022/01/13 06:04:53;;;;;;;6.10;5.50;;;1.90;78.30;;;;;;5014308;28;20494;-75
2022/01/13 06:07:20;;;;;;;6.17;5.57;;;2.00;77.70;;;;;;5014268;28;20530;-75
2022/01/13 06:09:46;;;;;;;6.80;6.10;;;2.10;77.80;;;;;;5014346;28;20475;-75
2022/01/13 06:12:15;;;;;;;6.13;5.60;;;2.10;77.50;;;;;;5013941;28;20437;-75
2022/01/13 06:14:43;;;;;;;6.30;5.70;;;2.10;77.40;;;;;;5014039;28;20491;-75
2022/01/13 06:17:10;;;;;;;6.90;6.30;;;2.20;77.30;;;;;;5013676;28;20484;-75
2022/01/13 06:19:37;;;;;;;6.73;6.13;;;2.30;77.30;;;;;;5014011;28;20448;-74
2022/01/13 06:22:04;;;;;;;7.53;6.83;;;2.30;77.10;;;;;;5014151;28;20510;-75
2022/01/13 06:24:30;;;;;;;7.23;6.53;;;2.00;77.40;;;;;;5014062;28;20443;-75
2022/01/13 06:26:57;;;;;;;6.87;6.27;;;2.00;77.60;;;;;;5014081;28;20460;-75
2022/01/13 06:29:24;;;;;;;7.90;7.10;;;1.70;78.00;;;;;;5014036;28;20448;-75
2022/01/13 06:31:52;;;;;;;7.53;6.80;;;1.80;78.50;;;;;;5012952;28;20522;-75
2022/01/13 06:34:18;;;;;;;7.93;7.23;;;1.80;78.30;;;;;;5013515;28;20444;-75
2022/01/13 06:36:45;;;;;;;6.93;6.33;;;1.80;78.40;;;;;;5013809;28;20476;-74
2022/01/13 06:39:12;;;;;;;6.17;5.57;;;1.90;78.20;;;;;;5014406;28;20510;-75
2022/01/13 06:41:40;;;;;;;7.13;6.53;;;2.00;77.90;;;;;;5013933;28;20482;-75
2022/01/13 06:44:07;;;;;;;5.90;5.30;;;1.90;77.90;;;;;;5013780;28;20499;-75
2022/01/13 06:46:34;;;;;;;6.83;6.13;;;2.00;77.70;;;;;;5013659;28;20488;-73
2022/01/13 06:49:02;;;;;;;7.00;6.30;;;2.10;77.30;;;;;;5013576;28;20448;-74
2022/01/13 06:51:29;;;;;;;6.90;6.30;;;2.10;77.30;;;;;;5013353;28;20445;-75
2022/01/13 06:53:55;;;;;;;7.53;6.83;;;1.80;77.10;;;;;;5013554;28;20456;-74
2022/01/13 06:56:24;;;;;;;7.13;6.43;;;1.80;78.40;;;;;;5013358;28;20566;-75
2022/01/13 06:58:51;;;;;;;6.87;6.27;;;1.50;78.70;;;;;;5013521;28;20448;-75
2022/01/13 07:01:18;;;;;;;6.50;5.90;;;1.40;78.80;;;;;;5013568;28;20905;-75
2022/01/13 07:03:45;;;;;;;6.03;5.43;;;1.40;79.00;;;;;;5013459;28;20452;-76
2022/01/13 07:06:13;;;;;;;6.83;6.13;;;1.40;78.50;;;;;;5013418;28;20515;-77
2022/01/13 07:08:39;;;;;;;6.30;5.70;;;1.30;78.30;;;;;;5013354;28;20460;-77
2022/01/13 07:11:06;;;;;;;6.77;6.17;;;1.20;78.80;;;;;;5013442;28;20546;-77
2022/01/13 07:13:33;;;;;;;7.10;6.40;;;1.00;79.10;;;;;;5013566;28;20436;-76
2022/01/13 07:16:01;;;;;;;10.33;9.23;;;0.70;80.50;;;;;;5012823;28;21007;-77
2022/01/13 07:18:28;;;;;;;9.27;8.23;;;0.90;80.60;;;;;;5013291;28;20455;-77
2022/01/13 07:20:56;;;;;;;8.20;7.20;;;1.00;79.90;;;;;;5013339;28;20502;-77
2022/01/13 07:23:24;;;;;;;7.10;6.40;;;1.00;79.90;;;;;;5013382;28;20522;-77
2022/01/13 07:25:50;;;;;;;6.57;5.73;;;1.20;79.60;;;;;;5013276;28;20468;-75
2022/01/13 07:28:17;;;;;;;6.90;6.17;;;1.30;79.00;;;;;;5016379;28;20484;-75
2022/01/13 07:30:44;;;;;;;6.60;6.00;;;1.10;78.00;;;;;;5022522;28;20462;-76
2022/01/13 07:33:10;;;;;;;7.23;6.53;;;1.10;78.80;;;;;;5037156;28;20456;-77
2022/01/13 07:35:37;;;;;;;7.03;5.93;;;1.20;78.10;;;;;;5036406;28;20476;-76
2022/01/13 07:38:03;;;;;;;5.90;5.30;;;1.10;78.30;;;;;;5013654;28;20452;-76
2022/01/13 07:40:32;;;;;;;6.50;5.43;;;1.30;77.70;;;;;;5013700;28;20448;-77
2022/01/13 07:42:58;;;;;;;6.30;5.70;;;1.50;77.10;;;;;;5016442;28;20448;-77
2022/01/13 07:45:25;;;;;;;7.30;6.60;;;1.80;77.10;;;;;;5017365;28;20472;-78
2022/01/13 07:47:51;;;;;;;5.93;5.33;;;2.10;76.90;;;;;;5017289;28;20502;-77
2022/01/13 07:50:18;;;;;;;5.80;5.30;;;2.40;76.00;;;;;;5017099;28;20448;-77
2022/01/13 07:52:45;;;;;;;6.00;5.33;;;2.70;74.10;;;;;;5017296;28;20447;-77
2022/01/13 07:55:12;;;;;;;5.83;5.30;;;2.80;73.00;;;;;;5016806;28;20479;-78
2022/01/13 07:57:40;;;;;;;6.60;6.00;;;3.00;72.40;;;;;;5016902;28;20498;-77
2022/01/13 08:00:10;;;;;;;6.87;6.17;;;3.10;72.10;;;;;;5016797;28;20452;-77
2022/01/13 08:02:36;;;;;;;6.10;5.50;;;3.20;71.80;;;;;;5016770;28;20452;-76
2022/01/13 08:05:04;;;;;;;6.40;5.73;;;3.20;71.40;;;;;;5016709;28;20444;-77
2022/01/13 08:07:31;;;;;;;6.43;5.80;;;3.10;72.00;;;;;;5016490;28;20873;-75
2022/01/13 08:09:58;;;;;;;6.83;6.20;;;2.70;72.30;;;;;;5016557;28;20510;-75
2022/01/13 08:12:25;;;;;;;7.07;6.00;;;2.60;73.40;;;;;;5016570;28;20488;-77
2022/01/13 08:14:53;;;;;;;5.97;5.37;;;2.70;73.20;;;;;;5016103;28;20502;-75
2022/01/13 08:20:03;;;;;;;6.20;5.60;;;3.10;72.40;;;;;;5016058;28;20853;-75
2022/01/13 08:22:30;;;;;;;6.53;5.90;;;3.50;71.10;;;;;;5016425;28;20424;-75
2022/01/13 08:24:56;;;;;;;6.37;5.77;;;3.80;70.10;;;;;;5016742;28;20455;-75
2022/01/13 08:27:23;;;;;;;7.90;7.17;;;3.20;70.30;;;;;;5016376;28;20876;-75
2022/01/13 08:29:50;;;;;;;6.43;5.83;;;3.00;71.90;;;;;;5017731;28;20870;-75
2022/01/13 08:32:18;;;;;;;6.50;5.90;;;2.90;72.10;;;;;;5016939;28;20526;-75
2022/01/13 08:34:45;;;;;;;6.00;5.40;;;3.00;72.90;;;;;;5016174;28;20551;-75
2022/01/13 08:37:12;;;;;;;7.07;6.37;;;3.40;71.80;;;;;;5015666;28;20491;-75
2022/01/13 08:39:44;;;;;;;6.47;5.87;;;3.70;70.80;;;;;;5016367;28;20474;-75
2022/01/13 08:42:11;;;;;;;6.80;5.87;;;3.90;70.00;;;;;;5016384;28;20432;-76
2022/01/13 08:44:38;;;;;;;7.30;6.60;;;4.10;69.30;;;;;;5016131;28;20448;-75
2022/01/13 08:47:05;;;;;;;7.17;6.57;;;4.40;68.90;;;;;;5015992;28;20476;-76
2022/01/13 08:49:33;;;;;;;7.60;6.90;;;4.40;67.40;;;;;;5015696;28;20947;-74
2022/01/13 08:52:00;;;;;;;6.70;6.00;;;4.50;68.10;;;;;;5016109;28;20456;-75
2022/01/13 08:54:27;;;;;;;6.10;5.50;;;4.60;67.80;;;;;;5015032;28;20452;-75
2022/01/13 08:56:54;;;;;;;6.70;6.10;;;4.20;68.90;;;;;;5015804;28;20538;-76
2022/01/13 08:59:20;;;;;;;6.80;6.20;;;3.30;69.80;;;;;;5015746;28;20444;-76
2022/01/13 09:01:47;;;;;;;6.33;5.73;;;3.20;72.10;;;;;;5016254;28;20502;-76
2022/01/13 09:04:14;;;;;;;6.90;6.30;;;3.60;72.30;;;;;;5015842;28;20478;-76
2022/01/13 09:06:42;;;;;;;6.80;6.20;;;3.40;70.20;;;;;;5015483;28;20468;-75
2022/01/13 09:09:08;;;;;;;7.33;6.67;;;3.60;71.40;;;;;;5015685;28;20474;-76
2022/01/13 09:11:35;;;;;;;6.00;5.40;;;3.80;70.50;;;;;;5015497;28;20495;-75
2022/01/13 09:14:02;;;;;;;6.33;5.70;;;3.90;69.90;;;;;;5015365;28;20452;-76
2022/01/13 09:16:40;;;;;;;6.33;5.73;;;3.80;70.10;;;;;;5014940;28;20492;-75
2022/01/13 09:19:11;;;;;;;6.37;5.77;;;3.30;71.00;;;;;;5015988;28;20440;-74
2022/01/13 09:21:39;;;;;;;7.27;6.57;;;3.30;72.30;;;;;;5017019;28;20432;-77
2022/01/13 09:24:09;;;;;;;7.23;6.13;;;3.40;71.50;;;;;;5015473;28;20939;-75
2022/01/13 09:26:36;;;;;;;7.37;6.67;;;3.30;71.60;;;;;;5014861;28;20893;-76
2022/01/13 09:29:03;;;;;;;6.70;6.10;;;3.30;71.90;;;;;;5015332;28;20452;-76
2022/01/13 09:31:31;;;;;;;6.30;5.70;;;3.10;72.40;;;;;;5015164;28;21000;-76
2022/01/13 09:33:58;;;;;;;7.57;6.77;;;3.40;72.70;;;;;;5014874;28;20452;-75
2022/01/13 09:36:25;;;;;;;6.43;5.83;;;3.20;71.80;;;;;;5014732;28;20997;-75
2022/01/13 09:38:51;;;;;;;6.20;5.60;;;3.20;72.70;;;;;;5015130;28;20448;-75
2022/01/13 09:41:22;;;;;;;5.87;5.27;;;2.90;72.30;;;;;;5015036;28;20502;-75
2022/01/13 09:43:49;;;;;;;6.53;5.93;;;2.80;73.40;;;;;;5015308;28;20432;-76
2022/01/13 09:46:17;;;;;;;7.40;6.70;;;2.50;73.40;;;;;;5015159;28;20475;-75
2022/01/13 09:48:45;;;;;;;5.50;4.87;;;2.10;75.40;;;;;;5015005;28;20510;-75
2022/01/13 09:51:12;;;;;;;6.60;6.00;;;2.10;77.20;;;;;;5015096;28;20460;-75
2022/01/13 09:53:39;;;;;;;6.27;5.67;;;1.90;77.40;;;;;;5015139;28;20452;-75
2022/01/13 09:56:06;;;;;;;6.00;5.40;;;2.00;77.50;;;;;;5014944;28;20488;-76
2022/01/13 09:58:34;;;;;;;6.67;5.97;;;1.90;77.90;;;;;;5014818;28;20506;-75
2022/01/13 10:01:01;;;;;;;4.97;4.47;;;2.00;77.80;;;;;;5014610;28;20548;-75
2022/01/13 10:03:29;;;;;;;6.03;5.43;;;2.20;77.50;;;;;;5014233;28;20448;-76
2022/01/13 10:05:58;;;;;;;6.13;5.47;;;2.30;76.60;;;;;;5014397;28;20512;-75
2022/01/13 10:08:41;;;;;;;5.73;5.10;;;2.20;77.20;;;;;;5014522;28;20448;-75
2022/01/13 10:11:27;;;;;;;5.47;4.97;;;2.40;75.80;;;;;;5014571;28;20436;-75
2022/01/13 10:14:06;;;;;;;5.70;5.00;;;2.60;76.20;;;;;;5014337;28;20926;-75
2022/01/13 10:16:33;;;;;;;6.10;5.50;;;2.90;75.10;;;;;;5130366;23;20495;-71
2022/01/13 10:18:59;;;;;;;6.80;5.67;;;3.20;74.10;;;;;;5014362;28;20437;-73
2022/01/13 10:21:26;;;;;;;5.33;4.83;;;3.40;73.50;;;;;;5014567;28;20499;-73
2022/01/13 10:24:06;;;;;;;5.40;4.90;;;3.60;73.00;;;;;;5014480;28;20443;-73
2022/01/13 10:26:34;;;;;;;8.17;5.30;;;3.80;73.50;;;;;;5014395;28;20847;-71
2022/01/13 10:29:01;;;;;;;6.13;5.53;;;4.00;72.00;;;;;;5014438;28;20447;-73
2022/01/13 10:31:49;;;;;;;5.30;4.80;;;4.00;71.60;;;;;;5014819;28;20447;-73
2022/01/13 10:34:18;;;;;;;5.80;4.83;;;4.20;71.80;;;;;;5014104;28;20807;-73
2022/01/13 10:37:03;;;;;;;4.80;4.30;;;4.40;71.40;;;;;;5014097;28;20542;-73
2022/01/13 10:39:49;;;;;;;5.60;5.00;;;4.70;69.30;;;;;;5014222;28;20432;-73
2022/01/13 10:42:44;;;;;;;5.87;5.30;;;4.70;69.00;;;;;;5014185;28;20440;-73
2022/01/13 10:45:09;;;;;;;5.50;4.90;;;4.10;70.20;;;;;;5014061;28;20437;-73
2022/01/13 10:47:39;;;;;;;6.00;5.00;;;3.50;72.30;;;;;;5014083;28;20464;-73
2022/01/13 10:50:09;;;;;;;6.27;5.67;;;3.40;73.00;;;;;;5014225;28;20865;-73
2022/01/13 10:52:35;;;;;;;6.30;5.13;;;3.60;72.60;;;;;;5014001;28;20448;-73
2022/01/13 10:55:08;;;;;;;5.53;5.03;;;3.30;73.50;;;;;;5014009;28;20494;-73
2022/01/13 10:57:36;;;;;;;5.70;5.20;;;3.40;74.00;;;;;;5013820;28;20499;-72
2022/01/13 11:00:04;;;;;;;5.30;4.80;;;3.60;73.30;;;;;;5013929;28;20502;-73
2022/01/13 11:02:31;;;;;;;6.10;5.60;;;3.90;72.60;;;;;;5013646;28;21009;-73
2022/01/13 11:05:02;;;;;;;5.63;5.13;;;4.00;71.60;;;;;;5013839;28;20498;-74
2022/01/13 11:07:30;;;;;;;6.00;5.40;;;4.30;71.70;;;;;;5013851;28;20472;-74
2022/01/13 11:10:00;;;;;;;5.43;4.83;;;5.00;69.90;;;;;;5013585;28;20460;-73
2022/01/13 11:12:32;;;;;;;6.30;4.90;;;5.80;67.90;;;;;;5013780;28;20456;-74
2022/01/13 11:15:03;;;;;;;5.53;5.03;;;7.10;63.60;;;;;;5013841;28;20488;-74
2022/01/13 11:17:30;;;;;;;5.80;5.30;;;7.70;60.70;;;;;;5012830;28;20507;-73
2022/01/13 11:19:57;;;;;;;5.40;4.90;;;6.90;61.70;;;;;;5013721;28;20503;-74
2022/01/13 11:22:25;;;;;;;5.83;4.73;;;6.50;63.70;;;;;;5013640;28;20448;-74
2022/01/13 11:24:52;;;;;;;5.13;4.47;;;6.40;63.80;;;;;;5013655;28;20522;-74
2022/01/13 11:27:21;;;;;;;5.77;5.10;;;5.90;65.40;;;;;;5013651;28;20468;-74
2022/01/13 11:29:48;;;;;;;5.47;4.90;;;5.30;66.00;;;;;;5013671;28;20495;-74
2022/01/13 11:32:16;;;;;;;5.80;4.80;;;5.10;67.60;;;;;;5013617;28;20448;-77
2022/01/13 11:34:43;;;;;;;5.40;4.90;;;4.60;69.00;;;;;;5013631;28;20444;-78
2022/01/13 11:37:10;;;;;;;5.97;5.30;;;4.50;69.40;;;;;;5013377;28;20480;-76
2022/01/13 11:39:40;;;;;;;5.97;5.37;;;4.60;69.60;;;;;;5013623;28;20464;-74
2022/01/13 11:42:09;;;;;;;5.20;4.70;;;4.80;69.40;;;;;;5013575;28;20432;-74
2022/01/13 11:44:37;;;;;;;5.50;5.00;;;5.00;68.80;;;;;;5013492;28;20524;-74
2022/01/13 11:47:16;;;;;;;5.60;4.77;;;4.70;68.80;;;;;;5013102;28;21042;-74
2022/01/13 11:49:54;;;;;;;4.97;4.47;;;4.50;69.80;;;;;;5013461;28;20444;-75
2022/01/13 11:52:39;;;;;;;5.50;4.97;;;4.30;69.80;;;;;;5013966;28;20440;-74
2022/01/13 11:55:22;;;;;;;6.20;5.53;;;4.20;70.80;;;;;;5013345;28;20443;-74
2022/01/13 11:57:49;;;;;;;5.20;4.70;;;4.20;71.00;;;;;;5013260;28;20487;-75
2022/01/13 12:00:23;;;;;;;5.87;4.90;;;4.20;70.90;;;;;;5013367;28;20502;-72
2022/01/13 12:02:51;;;;;;;5.40;4.90;;;4.30;71.10;;;;;;5014490;28;20440;-74
2022/01/13 12:05:20;;;;;;;5.83;5.23;;;4.40;70.90;;;;;;5014871;28;20471;-72
2022/01/13 12:07:48;;;;;;;6.50;5.90;;;4.40;70.40;;;;;;5015281;28;20464;-74
2022/01/13 12:10:53;;;;;;;6.80;5.53;;;4.80;69.60;;;;;;5014868;28;20460;-73
2022/01/13 12:13:36;;;;;;;6.10;5.50;;;5.30;68.90;;;;;;5014329;28;20804;-73
2022/01/13 12:16:04;;;;;;;4.50;3.90;;;6.00;65.60;;;;;;5013994;28;20887;-74
2022/01/13 12:19:14;;;;;;;6.10;4.47;;;6.40;65.20;;;;;;5014360;28;20436;-74
2022/01/13 12:21:48;;;;;;;5.10;3.57;;;7.10;63.40;;;;;;5014459;28;20432;-74
2022/01/13 12:24:35;;;;;;;5.13;4.03;;;8.90;59.70;;;;;;5014615;28;20429;-75
2022/01/13 12:27:05;;;;;;;5.17;4.63;;;11.80;53.70;;;;;;5014213;28;20993;-74
2022/01/13 12:29:32;;;;;;;5.00;4.50;;;14.90;47.50;;;;;;5017481;28;20826;-75
2022/01/13 12:32:01;;;;;;;5.23;4.73;;;16.70;42.00;;;;;;5019147;28;21011;-75
2022/01/13 12:34:48;;;;;;;5.00;4.50;;;18.50;41.20;;;;;;5018539;28;20458;-74
2022/01/13 12:37:31;;;;;;;4.70;3.87;;;21.60;36.80;;;;;;5019154;28;20995;-73
2022/01/13 12:40:00;;;;;;;4.27;3.87;;;21.60;34.20;;;;;;5016798;28;20425;-74
2022/01/13 12:42:37;;;;;;;4.40;4.00;;;22.10;35.30;;;;;;5016348;28;20448;-74
2022/01/13 12:47:50;;;;;;;4.23;3.83;;;25.90;30.00;;;;;;5016151;28;20461;-74
2022/01/13 12:50:20;;;;;;;4.63;4.23;;;25.50;30.00;;;;;;5016265;28;20471;-74
2022/01/13 12:52:48;;;;;;;5.00;3.90;;;25.20;29.10;;;;;;5016238;28;20432;-74
2022/01/13 12:55:15;;;;;;;4.50;3.70;;;24.90;30.50;;;;;;5016037;28;20459;-74
2022/01/13 12:57:53;;;;;;;4.70;4.20;;;25.30;30.10;;;;;;5015972;28;20484;-75
2022/01/13 13:00:22;;;;;;;4.50;3.77;;;26.20;29.50;;;;;;5016162;28;20432;-75
2022/01/13 13:02:58;;;;;;;5.37;4.87;;;26.50;28.90;;;;;;5016000;28;20857;-76
2022/01/13 13:05:33;;;;;;;4.60;4.20;;;25.60;29.60;;;;;;5016145;28;20844;-75
2022/01/13 13:08:00;;;;;;;4.50;3.83;;;26.20;28.70;;;;;;5016097;28;20502;-75
2022/01/13 13:10:28;;;;;;;4.53;4.00;;;26.30;28.40;;;;;;5015568;28;20944;-76
2022/01/13 13:12:56;;;;;;;5.50;4.20;;;25.50;29.90;;;;;;5015830;28;20452;-76
2022/01/13 13:15:41;;;;;;;4.87;4.47;;;25.80;29.60;;;;;;5015790;28;20457;-75
2022/01/13 13:18:18;;;;;;;4.60;4.10;;;26.60;29.10;;;;;;5015435;28;20488;-75
2022/01/13 13:20:48;;;;;;;5.10;4.60;;;26.00;28.70;;;;;;5015567;28;20926;-75
2022/01/13 13:23:17;;;;;;;4.97;4.47;;;25.40;29.50;;;;;;5015911;28;20792;-76
2022/01/13 13:25:45;;;;;;;5.57;5.07;;;25.00;29.50;;;;;;5015772;28;20860;-76
2022/01/13 13:28:38;;;;;;;4.80;4.30;;;24.10;30.60;;;;;;5015760;28;20499;-76
2022/01/13 13:31:11;;;;;;;4.83;3.87;;;23.60;31.10;;;;;;5013368;28;20472;-76
2022/01/13 13:33:46;;;;;;;3.90;3.50;;;22.70;31.90;;;;;;5015653;28;20436;-76
2022/01/13 13:36:15;;;;;;;4.10;3.50;;;22.70;32.40;;;;;;5015116;28;20888;-75
2022/01/13 13:38:47;;;;;;;4.77;3.37;;;23.00;32.20;;;;;;5015372;28;20483;-75
2022/01/13 13:41:17;;;;;;;4.70;4.20;;;22.30;32.70;;;;;;5015184;28;20497;-76
2022/01/13 13:43:45;;;;;;;5.60;3.37;;;22.00;32.80;;;;;;5015410;28;20448;-76
2022/01/13 13:46:14;;;;;;;4.90;3.70;;;21.30;34.10;;;;;;5014867;28;20979;-75
2022/01/13 13:48:42;;;;;;;4.30;3.40;;;22.00;32.90;;;;;;5015190;28;20801;-76
2022/01/13 13:51:09;;;;;;;4.50;3.60;;;22.60;32.90;;;;;;5015149;28;20531;-75
2022/01/13 13:53:36;;;;;;;3.70;3.07;;;23.10;32.20;;;;;;5015066;28;20506;-75
2022/01/13 13:56:05;;;;;;;4.10;3.53;;;24.10;31.30;;;;;;5014995;28;20469;-75
2022/01/13 13:58:32;;;;;;;3.40;2.73;;;24.80;30.50;;;;;;5015289;28;20487;-75
2022/01/13 14:01:06;;;;;;;3.50;2.93;;;25.50;28.80;;;;;;5014854;28;20452;-76
2022/01/13 14:03:41;;;;;;;3.83;2.83;;;25.10;29.90;;;;;;5014955;28;20951;-75
2022/01/13 14:06:08;;;;;;;4.07;2.87;;;25.40;28.90;;;;;;5014798;28;20472;-74
2022/01/13 14:08:50;;;;;;;4.23;2.50;;;24.70;29.50;;;;;;5014869;28;20812;-75
2022/01/13 14:11:17;;;;;;;4.00;3.07;;;25.40;29.60;;;;;;5014810;28;20507;-76
2022/01/13 14:13:44;;;;;;;4.07;2.40;;;26.40;28.30;;;;;;5014723;28;20865;-76
2022/01/13 14:16:12;;;;;;;4.10;3.13;;;26.30;28.50;;;;;;5014112;28;20823;-75
2022/01/13 14:18:39;;;;;;;3.50;2.50;;;26.50;28.10;;;;;;5014614;28;20515;-76
2022/01/13 14:21:07;;;;;;;3.40;2.07;;;26.70;27.90;;;;;;5014599;28;20519;-75
2022/01/13 14:23:35;;;;;;;3.60;2.53;;;25.80;28.30;;;;;;5014215;28;20973;-75
2022/01/13 14:26:04;;;;;;;3.53;2.63;;;24.00;29.80;;;;;;5014650;28;20472;-76
2022/01/13 14:28:31;;;;;;;3.50;2.30;;;22.40;31.80;;;;;;5014694;28;20449;-75
2022/01/13 14:31:03;;;;;;;4.23;2.70;;;20.70;33.60;;;;;;5015678;28;20484;-76
2022/01/13 14:33:33;;;;;;;3.70;2.70;;;18.90;36.30;;;;;;5015456;28;21015;-75
2022/01/13 14:36:08;;;;;;;3.87;2.80;;;17.30;38.40;;;;;;5015762;28;20468;-76
2022/01/13 14:38:38;;;;;;;3.83;2.90;;;16.70;39.60;;;;;;5016784;28;20472;-75
2022/01/13 14:41:06;;;;;;;3.70;2.57;;;16.50;40.10;;;;;;5016370;28;20456;-75
2022/01/13 14:43:33;;;;;;;3.97;2.80;;;15.50;41.20;;;;;;5016285;28;20820;-75
2022/01/13 14:46:05;;;;;;;3.67;2.90;;;14.80;42.60;;;;;;5016448;28;20472;-75
2022/01/13 14:48:34;;;;;;;5.53;3.13;;;14.00;44.30;;;;;;5015818;28;20812;-75
2022/01/13 14:51:05;;;;;;;3.97;2.97;;;13.60;45.20;;;;;;5014848;28;20463;-75
2022/01/13 14:53:33;;;;;;;4.40;3.60;;;13.00;46.20;;;;;;5014743;28;20979;-75
2022/01/13 14:56:00;;;;;;;4.03;3.10;;;12.20;47.70;;;;;;5014495;28;20491;-75
2022/01/13 14:58:26;;;;;;;5.33;3.73;;;11.00;50.10;;;;;;5014399;28;21063;-75
2022/01/13 15:00:55;;;;;;;5.50;3.60;;;10.20;52.00;;;;;;5014012;28;20452;-75
2022/01/13 15:03:22;;;;;;;4.10;3.10;;;9.80;53.10;;;;;;5013908;28;20456;-73
2022/01/13 15:05:50;;;;;;;4.53;3.30;;;9.10;54.90;;;;;;5013705;28;20444;-74
2022/01/13 15:08:17;;;;;;;5.50;3.87;;;8.60;56.30;;;;;;5013835;28;20436;-75
2022/01/13 15:10:43;;;;;;;5.83;3.40;;;8.30;57.40;;;;;;5013759;28;20479;-74
2022/01/13 15:13:10;;;;;;;5.70;3.23;;;8.10;58.20;;;;;;5013756;28;20460;-74
2022/01/13 15:15:37;;;;;;;5.20;3.70;;;8.10;58.50;;;;;;5013661;28;20448;-74
2022/01/13 15:18:04;;;;;;;4.60;3.80;;;7.80;59.50;;;;;;5013273;28;20970;-75
2022/01/13 15:20:31;;;;;;;4.70;3.80;;;7.90;59.60;;;;;;5013868;28;20458;-74
2022/01/13 15:22:59;;;;;;;6.57;5.50;;;7.90;59.80;;;;;;5013744;28;20452;-74
2022/01/13 15:25:27;;;;;;;4.90;3.97;;;7.70;60.50;;;;;;5013693;28;20444;-75
2022/01/13 15:27:54;;;;;;;4.83;4.33;;;7.80;60.50;;;;;;5013695;28;20540;-74
2022/01/13 15:30:20;;;;;;;5.03;2.87;;;7.80;60.70;;;;;;5013651;28;20448;-75
2022/01/13 15:32:47;;;;;;;3.97;3.03;;;7.80;60.90;;;;;;5013511;28;20502;-74
2022/01/13 15:35:15;;;;;;;3.93;2.37;;;7.80;61.20;;;;;;5013540;28;20452;-74
2022/01/13 15:37:42;;;;;;;4.80;3.30;;;7.80;61.10;;;;;;5013304;28;20534;-74
2022/01/13 15:40:13;;;;;;;4.23;3.33;;;7.60;61.60;;;;;;5013554;28;20452;-74
2022/01/13 15:42:41;;;;;;;4.80;4.00;;;7.40;61.80;;;;;;5014398;28;20506;-75
2022/01/13 15:45:09;;;;;;;5.03;3.40;;;7.30;62.20;;;;;;5013496;28;20453;-74
2022/01/13 15:47:36;;;;;;;5.50;3.20;;;7.10;62.80;;;;;;5013363;28;20514;-74
2022/01/13 15:50:05;;;;;;;4.50;3.77;;;7.00;63.30;;;;;;5013487;28;20502;-76
2022/01/13 15:52:31;;;;;;;4.03;3.10;;;6.80;64.00;;;;;;5013397;28;20500;-75
2022/01/13 15:54:58;;;;;;;4.50;3.27;;;6.80;64.10;;;;;;5012996;28;20451;-74
2022/01/13 15:57:26;;;;;;;4.50;3.50;;;6.70;64.40;;;;;;5013186;28;20904;-74
2022/01/13 15:59:53;;;;;;;4.60;3.70;;;6.40;65.10;;;;;;5013294;28;20524;-74
2022/01/13 16:02:20;;;;;;;5.37;3.60;;;6.60;65.00;;;;;;5013292;28;20498;-74
2022/01/13 16:04:46;;;;;;;5.60;3.53;;;6.70;65.00;;;;;;5017167;28;20452;-75
2022/01/13 16:07:13;;;;;;;4.40;3.90;;;6.60;64.90;;;;;;5017057;28;20518;-74
2022/01/13 16:09:40;;;;;;;5.00;4.50;;;6.60;65.30;;;;;;5016780;28;20437;-75
2022/01/13 16:12:07;;;;;;;4.83;3.97;;;6.60;65.60;;;;;;5017018;28;20448;-74
2022/01/13 16:14:35;;;;;;;4.97;4.20;;;6.60;65.90;;;;;;5017149;28;20509;-74
2022/01/13 16:17:03;;;;;;;5.67;4.40;;;6.60;65.80;;;;;;5040991;23;21019;-72
2022/01/13 16:19:29;;;;;;;5.57;5.07;;;6.60;65.70;;;;;;5016795;28;20513;-72
2022/01/13 16:21:56;;;;;;;5.17;4.67;;;6.60;65.50;;;;;;5016855;28;20444;-71
2022/01/13 16:24:23;;;;;;;4.23;3.67;;;6.50;65.20;;;;;;5016866;28;20455;-70
2022/01/13 16:26:50;;;;;;;4.80;4.20;;;6.50;65.30;;;;;;5017041;28;20877;-69
2022/01/13 16:29:50;;;;;;;5.37;4.20;;;6.40;65.60;;;;;;5016697;28;20447;-71
2022/01/13 16:32:17;;;;;;;5.20;4.03;;;6.30;65.70;;;;;;5016391;28;20907;-71
2022/01/13 16:34:44;;;;;;;4.87;3.70;;;6.30;65.70;;;;;;5016613;28;20444;-72
2022/01/13 16:37:10;;;;;;;4.57;4.00;;;6.20;66.10;;;;;;5016507;28;20460;-71
2022/01/13 16:39:37;;;;;;;4.30;3.40;;;6.10;66.70;;;;;;5016449;28;20510;-71
2022/01/13 16:42:04;;;;;;;4.90;3.63;;;6.10;66.70;;;;;;5016463;28;20452;-72
2022/01/13 16:44:31;;;;;;;5.10;4.60;;;6.00;67.00;;;;;;5016172;28;20956;-72
2022/01/13 16:46:59;;;;;;;5.83;5.13;;;6.00;67.10;;;;;;5016413;28;20476;-72
2022/01/13 16:49:26;;;;;;;6.27;5.60;;;6.00;67.10;;;;;;5016359;28;20446;-71
2022/01/13 16:51:53;;;;;;;5.47;4.40;;;6.00;66.90;;;;;;5016295;28;20506;-70
2022/01/13 16:54:20;;;;;;;4.80;4.13;;;5.90;67.30;;;;;;5016271;28;20534;-69
2022/01/13 16:56:46;;;;;;;4.90;4.40;;;5.90;67.30;;;;;;5016148;28;20464;-70
2022/01/13 16:59:13;;;;;;;4.50;3.97;;;5.80;67.50;;;;;;5016053;28;20484;-70
2022/01/13 17:01:40;;;;;;;4.13;3.37;;;5.80;67.60;;;;;;5016005;28;20471;-72
2022/01/13 17:04:08;;;;;;;4.27;3.70;;;5.70;67.80;;;;;;5016070;28;20504;-70
2022/01/13 17:06:36;;;;;;;4.17;3.60;;;5.70;67.50;;;;;;5016148;28;20591;-70
2022/01/13 17:09:04;;;;;;;4.30;3.40;;;5.70;67.60;;;;;;5017271;28;20449;-71
2022/01/13 17:11:31;;;;;;;4.33;3.03;;;5.70;67.50;;;;;;5017222;28;20444;-70
2022/01/13 17:13:58;;;;;;;4.37;3.00;;;5.70;67.50;;;;;;5016454;28;20966;-71